sensor_id;sensor_type;location;lat;lon;timestamp;P1;durP1;ratioP1;P2;durP2;ratioP2
30307;SDS011;17114;52.314;8.910;2023-04-07T00:00:40;27.08;;;17.27;;
30307;SDS011;17114;52.314;8.910;2023-04-07T00:03:07;27.00;;;17.85;;
30307;SDS011;17114;52.314;8.910;2023-04-07T00:05:34;30.70;;;17.92;;
30307;SDS011;17114;52.314;8.910;2023-04-07T00:08:01;29.63;;;18.08;;
30307;SDS011;17114;52.314;8.910;2023-04-07T00:10:29;28.27;;;17.23;;
30307;SDS011;17114;52.314;8.910;2023-04-07T00:12:56;27.80;;;17.55;;
30307;SDS011;17114;52.314;8.910;2023-04-07T00:15:23;27.17;;;16.73;;
30307;SDS011;17114;52.314;8.910;2023-04-07T00:17:52;26.70;;;16.90;;
30307;SDS011;17114;52.314;8.910;2023-04-07T00:20:19;27.55;;;16.33;;
30307;SDS011;17114;52.314;8.910;2023-04-07T00:22:49;28.15;;;16.45;;
30307;SDS011;17114;52.314;8.910;2023-04-07T00:25:16;31.95;;;16.83;;
30307;SDS011;17114;52.314;8.910;2023-04-07T00:27:43;30.23;;;16.30;;
30307;SDS011;17114;52.314;8.910;2023-04-07T00:30:10;26.83;;;16.80;;
30307;SDS011;17114;52.314;8.910;2023-04-07T00:32:37;26.63;;;15.80;;
30307;SDS011;17114;52.314;8.910;2023-04-07T00:35:04;26.13;;;15.68;;
30307;SDS011;17114;52.314;8.910;2023-04-07T00:37:32;25.98;;;15.82;;
30307;SDS011;17114;52.314;8.910;2023-04-07T00:39:58;26.73;;;15.45;;
30307;SDS011;17114;52.314;8.910;2023-04-07T00:42:26;29.15;;;15.90;;
30307;SDS011;17114;52.314;8.910;2023-04-07T00:44:53;26.90;;;16.05;;
30307;SDS011;17114;52.314;8.910;2023-04-07T00:47:19;27.88;;;16.10;;
30307;SDS011;17114;52.314;8.910;2023-04-07T00:49:46;27.38;;;15.35;;
30307;SDS011;17114;52.314;8.910;2023-04-07T00:52:14;29.58;;;16.77;;
30307;SDS011;17114;52.314;8.910;2023-04-07T00:54:41;25.00;;;16.05;;
30307;SDS011;17114;52.314;8.910;2023-04-07T00:57:11;29.10;;;16.13;;
30307;SDS011;17114;52.314;8.910;2023-04-07T00:59:38;22.35;;;13.43;;
30307;SDS011;17114;52.314;8.910;2023-04-07T01:02:20;20.52;;;14.57;;
30307;SDS011;17114;52.314;8.910;2023-04-07T01:04:51;20.10;;;13.13;;
30307;SDS011;17114;52.314;8.910;2023-04-07T01:07:28;19.27;;;11.82;;
30307;SDS011;17114;52.314;8.910;2023-04-07T01:10:03;19.33;;;11.52;;
30307;SDS011;17114;52.314;8.910;2023-04-07T01:15:38;19.02;;;10.98;;
30307;SDS011;17114;52.314;8.910;2023-04-07T01:18:09;19.88;;;12.32;;
30307;SDS011;17114;52.314;8.910;2023-04-07T01:20:41;24.25;;;12.20;;
30307;SDS011;17114;52.314;8.910;2023-04-07T01:23:12;23.77;;;12.23;;
30307;SDS011;17114;52.314;8.910;2023-04-07T01:25:53;18.42;;;11.38;;
30307;SDS011;17114;52.314;8.910;2023-04-07T01:28:38;20.38;;;12.73;;
30307;SDS011;17114;52.314;8.910;2023-04-07T01:31:14;21.17;;;11.93;;
30307;SDS011;17114;52.314;8.910;2023-04-07T01:33:43;19.73;;;11.75;;
30307;SDS011;17114;52.314;8.910;2023-04-07T01:36:11;21.52;;;12.55;;
30307;SDS011;17114;52.314;8.910;2023-04-07T01:38:39;22.35;;;12.15;;
30307;SDS011;17114;52.314;8.910;2023-04-07T01:41:07;20.30;;;11.98;;
30307;SDS011;17114;52.314;8.910;2023-04-07T01:43:36;25.02;;;14.10;;
30307;SDS011;17114;52.314;8.910;2023-04-07T01:46:07;22.45;;;13.77;;
30307;SDS011;17114;52.314;8.910;2023-04-07T01:48:34;26.25;;;13.77;;
30307;SDS011;17114;52.314;8.910;2023-04-07T01:51:03;22.13;;;12.93;;
30307;SDS011;17114;52.314;8.910;2023-04-07T01:53:31;22.42;;;12.95;;
30307;SDS011;17114;52.314;8.910;2023-04-07T01:56:03;20.13;;;12.07;;
30307;SDS011;17114;52.314;8.910;2023-04-07T01:58:31;20.13;;;11.20;;
30307;SDS011;17114;52.314;8.910;2023-04-07T02:00:58;19.50;;;11.60;;
30307;SDS011;17114;52.314;8.910;2023-04-07T02:03:35;17.55;;;10.88;;
30307;SDS011;17114;52.314;8.910;2023-04-07T02:06:07;18.15;;;10.23;;
30307;SDS011;17114;52.314;8.910;2023-04-07T02:08:38;15.70;;;10.38;;
30307;SDS011;17114;52.314;8.910;2023-04-07T02:11:11;16.67;;;10.13;;
30307;SDS011;17114;52.314;8.910;2023-04-07T02:13:40;16.98;;;10.07;;
30307;SDS011;17114;52.314;8.910;2023-04-07T02:16:08;14.65;;;10.00;;
30307;SDS011;17114;52.314;8.910;2023-04-07T02:18:36;14.70;;;9.88;;
30307;SDS011;17114;52.314;8.910;2023-04-07T02:21:04;12.52;;;8.43;;
30307;SDS011;17114;52.314;8.910;2023-04-07T02:23:34;15.05;;;9.82;;
30307;SDS011;17114;52.314;8.910;2023-04-07T02:26:01;19.77;;;12.00;;
30307;SDS011;17114;52.314;8.910;2023-04-07T02:28:28;15.48;;;10.52;;
30307;SDS011;17114;52.314;8.910;2023-04-07T02:30:58;17.10;;;11.02;;
30307;SDS011;17114;52.314;8.910;2023-04-07T02:33:25;20.25;;;12.20;;
30307;SDS011;17114;52.314;8.910;2023-04-07T02:35:52;19.10;;;12.05;;
30307;SDS011;17114;52.314;8.910;2023-04-07T02:38:19;19.98;;;12.93;;
30307;SDS011;17114;52.314;8.910;2023-04-07T02:40:46;21.40;;;13.68;;
30307;SDS011;17114;52.314;8.910;2023-04-07T02:43:13;21.40;;;12.90;;
30307;SDS011;17114;52.314;8.910;2023-04-07T02:45:40;20.98;;;13.32;;
30307;SDS011;17114;52.314;8.910;2023-04-07T02:48:07;26.23;;;13.30;;
30307;SDS011;17114;52.314;8.910;2023-04-07T02:50:34;20.45;;;13.35;;
30307;SDS011;17114;52.314;8.910;2023-04-07T02:53:01;20.42;;;12.95;;
30307;SDS011;17114;52.314;8.910;2023-04-07T02:55:28;22.10;;;13.63;;
30307;SDS011;17114;52.314;8.910;2023-04-07T02:57:55;20.98;;;13.50;;
30307;SDS011;17114;52.314;8.910;2023-04-07T03:00:22;17.27;;;11.63;;
30307;SDS011;17114;52.314;8.910;2023-04-07T03:02:49;22.85;;;12.57;;
30307;SDS011;17114;52.314;8.910;2023-04-07T03:05:16;22.02;;;12.55;;
30307;SDS011;17114;52.314;8.910;2023-04-07T03:07:43;21.05;;;11.95;;
30307;SDS011;17114;52.314;8.910;2023-04-07T03:10:10;19.73;;;12.65;;
30307;SDS011;17114;52.314;8.910;2023-04-07T03:12:37;21.52;;;13.60;;
30307;SDS011;17114;52.314;8.910;2023-04-07T03:15:04;27.05;;;15.55;;
30307;SDS011;17114;52.314;8.910;2023-04-07T03:17:32;21.92;;;14.25;;
30307;SDS011;17114;52.314;8.910;2023-04-07T03:19:59;24.70;;;14.52;;
30307;SDS011;17114;52.314;8.910;2023-04-07T03:22:26;21.80;;;13.75;;
30307;SDS011;17114;52.314;8.910;2023-04-07T03:24:53;21.98;;;14.15;;
30307;SDS011;17114;52.314;8.910;2023-04-07T03:27:20;25.58;;;14.02;;
30307;SDS011;17114;52.314;8.910;2023-04-07T03:29:47;23.35;;;13.63;;
30307;SDS011;17114;52.314;8.910;2023-04-07T03:32:14;20.60;;;11.90;;
30307;SDS011;17114;52.314;8.910;2023-04-07T03:34:41;19.23;;;11.98;;
30307;SDS011;17114;52.314;8.910;2023-04-07T03:37:08;21.23;;;12.63;;
30307;SDS011;17114;52.314;8.910;2023-04-07T03:39:35;26.35;;;13.45;;
30307;SDS011;17114;52.314;8.910;2023-04-07T03:42:02;22.40;;;13.15;;
30307;SDS011;17114;52.314;8.910;2023-04-07T03:44:29;22.27;;;12.82;;
30307;SDS011;17114;52.314;8.910;2023-04-07T03:46:57;21.25;;;12.70;;
30307;SDS011;17114;52.314;8.910;2023-04-07T03:49:23;21.88;;;12.88;;
30307;SDS011;17114;52.314;8.910;2023-04-07T03:51:50;20.77;;;12.68;;
30307;SDS011;17114;52.314;8.910;2023-04-07T03:54:18;20.27;;;12.98;;
30307;SDS011;17114;52.314;8.910;2023-04-07T03:56:44;21.90;;;13.10;;
30307;SDS011;17114;52.314;8.910;2023-04-07T03:59:11;21.50;;;13.27;;
30307;SDS011;17114;52.314;8.910;2023-04-07T04:01:38;21.13;;;12.23;;
30307;SDS011;17114;52.314;8.910;2023-04-07T04:04:05;21.77;;;12.25;;
30307;SDS011;17114;52.314;8.910;2023-04-07T04:06:33;23.77;;;13.07;;
30307;SDS011;17114;52.314;8.910;2023-04-07T04:09:00;19.98;;;13.23;;
30307;SDS011;17114;52.314;8.910;2023-04-07T04:11:27;19.85;;;12.00;;
30307;SDS011;17114;52.314;8.910;2023-04-07T04:13:54;20.13;;;12.13;;
30307;SDS011;17114;52.314;8.910;2023-04-07T04:16:21;19.55;;;12.48;;
30307;SDS011;17114;52.314;8.910;2023-04-07T04:18:48;19.40;;;12.40;;
30307;SDS011;17114;52.314;8.910;2023-04-07T04:21:15;19.25;;;11.65;;
30307;SDS011;17114;52.314;8.910;2023-04-07T04:23:42;17.75;;;12.05;;
30307;SDS011;17114;52.314;8.910;2023-04-07T04:26:09;18.60;;;12.20;;
30307;SDS011;17114;52.314;8.910;2023-04-07T04:28:36;19.15;;;11.68;;
30307;SDS011;17114;52.314;8.910;2023-04-07T04:31:04;18.83;;;11.43;;
30307;SDS011;17114;52.314;8.910;2023-04-07T04:33:32;20.73;;;12.65;;
30307;SDS011;17114;52.314;8.910;2023-04-07T04:35:59;20.58;;;11.75;;
30307;SDS011;17114;52.314;8.910;2023-04-07T04:38:25;22.25;;;13.45;;
30307;SDS011;17114;52.314;8.910;2023-04-07T04:40:52;22.95;;;13.20;;
30307;SDS011;17114;52.314;8.910;2023-04-07T04:43:19;19.45;;;13.15;;
30307;SDS011;17114;52.314;8.910;2023-04-07T04:45:47;19.95;;;12.32;;
30307;SDS011;17114;52.314;8.910;2023-04-07T04:48:14;18.42;;;12.13;;
30307;SDS011;17114;52.314;8.910;2023-04-07T04:50:42;20.55;;;12.65;;
30307;SDS011;17114;52.314;8.910;2023-04-07T04:53:09;21.75;;;12.38;;
30307;SDS011;17114;52.314;8.910;2023-04-07T04:55:36;20.35;;;12.13;;
30307;SDS011;17114;52.314;8.910;2023-04-07T04:58:06;20.17;;;12.65;;
30307;SDS011;17114;52.314;8.910;2023-04-07T05:00:32;22.25;;;12.70;;
30307;SDS011;17114;52.314;8.910;2023-04-07T05:02:59;21.35;;;12.25;;
30307;SDS011;17114;52.314;8.910;2023-04-07T05:05:28;17.63;;;11.23;;
30307;SDS011;17114;52.314;8.910;2023-04-07T05:07:56;18.95;;;12.05;;
30307;SDS011;17114;52.314;8.910;2023-04-07T05:10:22;17.67;;;11.80;;
30307;SDS011;17114;52.314;8.910;2023-04-07T05:12:49;16.38;;;11.45;;
30307;SDS011;17114;52.314;8.910;2023-04-07T05:15:16;19.70;;;13.23;;
30307;SDS011;17114;52.314;8.910;2023-04-07T05:17:43;23.55;;;13.88;;
30307;SDS011;17114;52.314;8.910;2023-04-07T05:20:15;20.50;;;13.55;;
30307;SDS011;17114;52.314;8.910;2023-04-07T05:22:43;18.45;;;12.68;;
30307;SDS011;17114;52.314;8.910;2023-04-07T05:25:10;19.42;;;13.52;;
30307;SDS011;17114;52.314;8.910;2023-04-07T05:27:38;19.92;;;12.90;;
30307;SDS011;17114;52.314;8.910;2023-04-07T05:30:05;21.45;;;13.80;;
30307;SDS011;17114;52.314;8.910;2023-04-07T05:32:33;22.67;;;12.80;;
30307;SDS011;17114;52.314;8.910;2023-04-07T05:35:00;18.75;;;11.93;;
30307;SDS011;17114;52.314;8.910;2023-04-07T05:37:27;18.35;;;11.73;;
30307;SDS011;17114;52.314;8.910;2023-04-07T05:39:54;17.80;;;11.43;;
30307;SDS011;17114;52.314;8.910;2023-04-07T05:42:21;17.23;;;11.90;;
30307;SDS011;17114;52.314;8.910;2023-04-07T05:44:48;16.73;;;10.90;;
30307;SDS011;17114;52.314;8.910;2023-04-07T05:47:15;16.05;;;10.65;;
30307;SDS011;17114;52.314;8.910;2023-04-07T05:49:42;19.55;;;10.90;;
30307;SDS011;17114;52.314;8.910;2023-04-07T05:52:12;20.17;;;11.68;;
30307;SDS011;17114;52.314;8.910;2023-04-07T05:54:40;17.15;;;11.32;;
30307;SDS011;17114;52.314;8.910;2023-04-07T05:57:07;20.08;;;12.35;;
30307;SDS011;17114;52.314;8.910;2023-04-07T05:59:34;20.15;;;12.20;;
30307;SDS011;17114;52.314;8.910;2023-04-07T06:02:02;20.80;;;11.82;;
30307;SDS011;17114;52.314;8.910;2023-04-07T06:04:30;19.83;;;12.07;;
30307;SDS011;17114;52.314;8.910;2023-04-07T06:06:58;15.75;;;10.77;;
30307;SDS011;17114;52.314;8.910;2023-04-07T06:09:25;14.73;;;10.77;;
30307;SDS011;17114;52.314;8.910;2023-04-07T06:11:53;19.27;;;11.77;;
30307;SDS011;17114;52.314;8.910;2023-04-07T06:14:22;16.92;;;11.18;;
30307;SDS011;17114;52.314;8.910;2023-04-07T06:16:49;18.17;;;11.80;;
30307;SDS011;17114;52.314;8.910;2023-04-07T06:19:16;15.20;;;10.07;;
30307;SDS011;17114;52.314;8.910;2023-04-07T06:21:43;17.77;;;12.40;;
30307;SDS011;17114;52.314;8.910;2023-04-07T06:24:10;15.32;;;11.52;;
30307;SDS011;17114;52.314;8.910;2023-04-07T06:26:38;16.42;;;11.15;;
30307;SDS011;17114;52.314;8.910;2023-04-07T06:29:06;16.92;;;11.32;;
30307;SDS011;17114;52.314;8.910;2023-04-07T06:31:33;16.75;;;11.02;;
30307;SDS011;17114;52.314;8.910;2023-04-07T06:34:02;18.90;;;11.75;;
30307;SDS011;17114;52.314;8.910;2023-04-07T06:36:29;16.63;;;10.90;;
30307;SDS011;17114;52.314;8.910;2023-04-07T06:38:58;17.35;;;11.13;;
30307;SDS011;17114;52.314;8.910;2023-04-07T06:41:25;14.70;;;10.80;;
30307;SDS011;17114;52.314;8.910;2023-04-07T06:43:52;15.18;;;11.30;;
30307;SDS011;17114;52.314;8.910;2023-04-07T06:46:19;15.30;;;10.98;;
30307;SDS011;17114;52.314;8.910;2023-04-07T06:48:46;18.77;;;11.52;;
30307;SDS011;17114;52.314;8.910;2023-04-07T06:51:13;19.75;;;10.80;;
30307;SDS011;17114;52.314;8.910;2023-04-07T06:53:41;15.50;;;11.10;;
30307;SDS011;17114;52.314;8.910;2023-04-07T06:56:10;14.45;;;10.43;;
30307;SDS011;17114;52.314;8.910;2023-04-07T06:58:37;16.83;;;10.65;;
30307;SDS011;17114;52.314;8.910;2023-04-07T07:01:04;16.88;;;11.40;;
30307;SDS011;17114;52.314;8.910;2023-04-07T07:03:32;16.17;;;11.18;;
30307;SDS011;17114;52.314;8.910;2023-04-07T07:05:59;15.43;;;11.13;;
30307;SDS011;17114;52.314;8.910;2023-04-07T07:08:27;14.95;;;11.23;;
30307;SDS011;17114;52.314;8.910;2023-04-07T07:14:12;16.27;;;10.82;;
30307;SDS011;17114;52.314;8.910;2023-04-07T07:16:38;15.32;;;10.60;;
30307;SDS011;17114;52.314;8.910;2023-04-07T07:19:06;14.95;;;10.68;;
30307;SDS011;17114;52.314;8.910;2023-04-07T07:21:33;14.10;;;10.73;;
30307;SDS011;17114;52.314;8.910;2023-04-07T07:24:00;15.73;;;10.93;;
30307;SDS011;17114;52.314;8.910;2023-04-07T07:26:27;13.30;;;10.15;;
30307;SDS011;17114;52.314;8.910;2023-04-07T07:28:54;13.75;;;10.43;;
30307;SDS011;17114;52.314;8.910;2023-04-07T07:31:22;16.60;;;10.88;;
30307;SDS011;17114;52.314;8.910;2023-04-07T07:33:49;13.77;;;9.43;;
30307;SDS011;17114;52.314;8.910;2023-04-07T07:36:20;12.25;;;9.13;;
30307;SDS011;17114;52.314;8.910;2023-04-07T07:38:48;12.60;;;8.82;;
30307;SDS011;17114;52.314;8.910;2023-04-07T07:41:30;12.40;;;8.80;;
30307;SDS011;17114;52.314;8.910;2023-04-07T07:45:33;12.60;;;8.88;;
30307;SDS011;17114;52.314;8.910;2023-04-07T07:49:20;14.43;;;9.95;;
30307;SDS011;17114;52.314;8.910;2023-04-07T08:03:48;11.50;;;7.53;;
30307;SDS011;17114;52.314;8.910;2023-04-07T08:07:46;13.85;;;8.50;;
30307;SDS011;17114;52.314;8.910;2023-04-07T08:10:20;13.27;;;9.00;;
30307;SDS011;17114;52.314;8.910;2023-04-07T08:12:47;11.35;;;8.95;;
30307;SDS011;17114;52.314;8.910;2023-04-07T08:15:15;11.32;;;8.48;;
30307;SDS011;17114;52.314;8.910;2023-04-07T08:17:42;12.85;;;8.95;;
30307;SDS011;17114;52.314;8.910;2023-04-07T08:20:09;11.00;;;8.32;;
30307;SDS011;17114;52.314;8.910;2023-04-07T08:22:37;11.52;;;8.43;;
30307;SDS011;17114;52.314;8.910;2023-04-07T08:25:04;11.07;;;8.02;;
30307;SDS011;17114;52.314;8.910;2023-04-07T08:27:31;9.93;;;7.82;;
30307;SDS011;17114;52.314;8.910;2023-04-07T08:29:59;13.10;;;8.63;;
30307;SDS011;17114;52.314;8.910;2023-04-07T08:32:35;10.30;;;7.63;;
30307;SDS011;17114;52.314;8.910;2023-04-07T08:35:03;9.93;;;7.82;;
30307;SDS011;17114;52.314;8.910;2023-04-07T08:37:31;10.30;;;7.47;;
30307;SDS011;17114;52.314;8.910;2023-04-07T08:39:59;9.63;;;7.53;;
30307;SDS011;17114;52.314;8.910;2023-04-07T08:42:28;9.48;;;7.97;;
30307;SDS011;17114;52.314;8.910;2023-04-07T08:44:57;9.63;;;7.38;;
30307;SDS011;17114;52.314;8.910;2023-04-07T08:47:31;9.18;;;7.50;;
30307;SDS011;17114;52.314;8.910;2023-04-07T08:50:09;12.32;;;8.07;;
30307;SDS011;17114;52.314;8.910;2023-04-07T08:52:44;11.95;;;8.05;;
30307;SDS011;17114;52.314;8.910;2023-04-07T08:55:15;10.55;;;7.50;;
30307;SDS011;17114;52.314;8.910;2023-04-07T08:57:42;12.82;;;8.07;;
30307;SDS011;17114;52.314;8.910;2023-04-07T09:00:11;9.05;;;7.57;;
30307;SDS011;17114;52.314;8.910;2023-04-07T09:02:40;8.88;;;7.60;;
30307;SDS011;17114;52.314;8.910;2023-04-07T09:05:15;10.60;;;8.90;;
30307;SDS011;17114;52.314;8.910;2023-04-07T09:07:42;12.43;;;8.10;;
30307;SDS011;17114;52.314;8.910;2023-04-07T09:10:10;12.32;;;7.90;;
30307;SDS011;17114;52.314;8.910;2023-04-07T09:12:37;13.18;;;8.13;;
30307;SDS011;17114;52.314;8.910;2023-04-07T09:15:05;10.57;;;8.13;;
30307;SDS011;17114;52.314;8.910;2023-04-07T09:17:34;12.82;;;8.80;;
30307;SDS011;17114;52.314;8.910;2023-04-07T09:20:02;11.70;;;8.88;;
30307;SDS011;17114;52.314;8.910;2023-04-07T09:25:23;14.25;;;8.90;;
30307;SDS011;17114;52.314;8.910;2023-04-07T09:27:54;12.52;;;9.02;;
30307;SDS011;17114;52.314;8.910;2023-04-07T09:30:22;12.63;;;8.50;;
30307;SDS011;17114;52.314;8.910;2023-04-07T09:32:49;14.20;;;8.40;;
30307;SDS011;17114;52.314;8.910;2023-04-07T09:35:20;13.00;;;8.00;;
30307;SDS011;17114;52.314;8.910;2023-04-07T09:38:02;11.38;;;8.57;;
30307;SDS011;17114;52.314;8.910;2023-04-07T09:40:30;11.05;;;8.95;;
30307;SDS011;17114;52.314;8.910;2023-04-07T09:42:58;11.32;;;8.30;;
30307;SDS011;17114;52.314;8.910;2023-04-07T09:45:25;13.77;;;8.63;;
30307;SDS011;17114;52.314;8.910;2023-04-07T09:48:07;10.48;;;8.23;;
30307;SDS011;17114;52.314;8.910;2023-04-07T09:50:45;14.13;;;8.73;;
30307;SDS011;17114;52.314;8.910;2023-04-07T09:53:17;15.13;;;10.43;;
30307;SDS011;17114;52.314;8.910;2023-04-07T09:55:45;15.32;;;12.02;;
30307;SDS011;17114;52.314;8.910;2023-04-07T09:58:14;19.20;;;12.93;;
30307;SDS011;17114;52.314;8.910;2023-04-07T10:00:42;17.52;;;12.25;;
30307;SDS011;17114;52.314;8.910;2023-04-07T10:03:09;19.38;;;12.80;;
30307;SDS011;17114;52.314;8.910;2023-04-07T10:05:37;20.00;;;12.98;;
30307;SDS011;17114;52.314;8.910;2023-04-07T10:08:05;19.85;;;13.40;;
30307;SDS011;17114;52.314;8.910;2023-04-07T10:10:32;17.20;;;12.77;;
30307;SDS011;17114;52.314;8.910;2023-04-07T10:13:04;20.90;;;13.55;;
30307;SDS011;17114;52.314;8.910;2023-04-07T10:15:35;17.35;;;12.52;;
30307;SDS011;17114;52.314;8.910;2023-04-07T10:18:08;21.75;;;13.68;;
30307;SDS011;17114;52.314;8.910;2023-04-07T10:20:36;17.95;;;13.43;;
30307;SDS011;17114;52.314;8.910;2023-04-07T10:23:13;17.40;;;13.10;;
30307;SDS011;17114;52.314;8.910;2023-04-07T10:25:44;21.60;;;13.13;;
30307;SDS011;17114;52.314;8.910;2023-04-07T10:28:14;17.23;;;13.00;;
30307;SDS011;17114;52.314;8.910;2023-04-07T10:30:43;20.60;;;13.73;;
30307;SDS011;17114;52.314;8.910;2023-04-07T10:33:12;23.30;;;13.35;;
30307;SDS011;17114;52.314;8.910;2023-04-07T10:38:29;18.77;;;13.25;;
30307;SDS011;17114;52.314;8.910;2023-04-07T10:40:57;20.80;;;13.02;;
30307;SDS011;17114;52.314;8.910;2023-04-07T10:43:37;17.80;;;13.18;;
30307;SDS011;17114;52.314;8.910;2023-04-07T10:46:10;18.80;;;13.68;;
30307;SDS011;17114;52.314;8.910;2023-04-07T10:48:37;18.98;;;13.05;;
30307;SDS011;17114;52.314;8.910;2023-04-07T10:53:33;18.25;;;11.82;;
30307;SDS011;17114;52.314;8.910;2023-04-07T10:56:03;17.02;;;12.23;;
30307;SDS011;17114;52.314;8.910;2023-04-07T10:58:31;18.45;;;12.80;;
30307;SDS011;17114;52.314;8.910;2023-04-07T11:03:27;18.95;;;13.93;;
30307;SDS011;17114;52.314;8.910;2023-04-07T11:08:37;19.02;;;12.77;;
30307;SDS011;17114;52.314;8.910;2023-04-07T11:11:12;20.87;;;13.53;;
30307;SDS011;17114;52.314;8.910;2023-04-07T11:13:47;18.88;;;13.10;;
30307;SDS011;17114;52.314;8.910;2023-04-07T11:16:17;20.70;;;13.60;;
30307;SDS011;17114;52.314;8.910;2023-04-07T11:18:46;18.75;;;12.88;;
30307;SDS011;17114;52.314;8.910;2023-04-07T11:21:17;19.85;;;12.80;;
30307;SDS011;17114;52.314;8.910;2023-04-07T11:23:45;18.67;;;13.10;;
30307;SDS011;17114;52.314;8.910;2023-04-07T11:26:14;20.20;;;12.18;;
30307;SDS011;17114;52.314;8.910;2023-04-07T11:28:48;21.75;;;13.10;;
30307;SDS011;17114;52.314;8.910;2023-04-07T11:31:22;20.13;;;12.75;;
30307;SDS011;17114;52.314;8.910;2023-04-07T11:33:55;21.02;;;13.10;;
30307;SDS011;17114;52.314;8.910;2023-04-07T11:36:25;20.10;;;12.93;;
30307;SDS011;17114;52.314;8.910;2023-04-07T11:38:58;21.77;;;13.80;;
30307;SDS011;17114;52.314;8.910;2023-04-07T11:41:27;20.50;;;13.65;;
30307;SDS011;17114;52.314;8.910;2023-04-07T11:44:09;21.90;;;14.32;;
30307;SDS011;17114;52.314;8.910;2023-04-07T11:46:53;18.50;;;12.15;;
30307;SDS011;17114;52.314;8.910;2023-04-07T11:49:30;19.73;;;12.02;;
30307;SDS011;17114;52.314;8.910;2023-04-07T11:51:59;16.50;;;10.82;;
30307;SDS011;17114;52.314;8.910;2023-04-07T11:57:09;16.60;;;11.07;;
30307;SDS011;17114;52.314;8.910;2023-04-07T11:59:40;17.60;;;11.65;;
30307;SDS011;17114;52.314;8.910;2023-04-07T12:02:07;17.52;;;12.27;;
30307;SDS011;17114;52.314;8.910;2023-04-07T12:04:35;16.75;;;11.68;;
30307;SDS011;17114;52.314;8.910;2023-04-07T12:07:06;15.23;;;10.85;;
30307;SDS011;17114;52.314;8.910;2023-04-07T12:09:34;16.63;;;11.07;;
30307;SDS011;17114;52.314;8.910;2023-04-07T12:12:04;20.63;;;11.30;;
30307;SDS011;17114;52.314;8.910;2023-04-07T12:14:33;15.80;;;10.95;;
30307;SDS011;17114;52.314;8.910;2023-04-07T12:17:00;16.15;;;11.07;;
30307;SDS011;17114;52.314;8.910;2023-04-07T12:19:30;16.52;;;10.90;;
30307;SDS011;17114;52.314;8.910;2023-04-07T12:22:05;17.98;;;11.02;;
30307;SDS011;17114;52.314;8.910;2023-04-07T12:24:32;15.38;;;10.63;;
30307;SDS011;17114;52.314;8.910;2023-04-07T12:27:00;15.13;;;10.40;;
30307;SDS011;17114;52.314;8.910;2023-04-07T12:29:28;18.38;;;11.00;;
30307;SDS011;17114;52.314;8.910;2023-04-07T12:31:55;15.57;;;10.30;;
30307;SDS011;17114;52.314;8.910;2023-04-07T12:34:22;16.35;;;10.55;;
30307;SDS011;17114;52.314;8.910;2023-04-07T12:36:49;18.67;;;11.27;;
30307;SDS011;17114;52.314;8.910;2023-04-07T12:39:17;18.70;;;11.40;;
30307;SDS011;17114;52.314;8.910;2023-04-07T12:41:47;15.68;;;10.85;;
30307;SDS011;17114;52.314;8.910;2023-04-07T12:44:16;17.40;;;10.52;;
30307;SDS011;17114;52.314;8.910;2023-04-07T12:46:43;16.05;;;10.45;;
30307;SDS011;17114;52.314;8.910;2023-04-07T12:49:10;18.63;;;11.55;;
30307;SDS011;17114;52.314;8.910;2023-04-07T12:51:37;17.27;;;11.02;;
30307;SDS011;17114;52.314;8.910;2023-04-07T12:54:05;18.90;;;11.70;;
30307;SDS011;17114;52.314;8.910;2023-04-07T12:56:32;16.85;;;10.75;;
30307;SDS011;17114;52.314;8.910;2023-04-07T12:58:59;17.88;;;10.65;;
30307;SDS011;17114;52.314;8.910;2023-04-07T13:01:26;16.30;;;10.50;;
30307;SDS011;17114;52.314;8.910;2023-04-07T13:03:54;18.67;;;10.25;;
30307;SDS011;17114;52.314;8.910;2023-04-07T13:06:21;18.52;;;10.77;;
30307;SDS011;17114;52.314;8.910;2023-04-07T13:08:49;19.05;;;10.52;;
30307;SDS011;17114;52.314;8.910;2023-04-07T13:11:17;17.13;;;10.65;;
30307;SDS011;17114;52.314;8.910;2023-04-07T13:13:44;18.10;;;10.88;;
30307;SDS011;17114;52.314;8.910;2023-04-07T13:16:11;19.55;;;11.40;;
30307;SDS011;17114;52.314;8.910;2023-04-07T13:18:38;16.90;;;10.63;;
30307;SDS011;17114;52.314;8.910;2023-04-07T13:21:05;17.48;;;10.35;;
30307;SDS011;17114;52.314;8.910;2023-04-07T13:23:52;21.17;;;10.82;;
30307;SDS011;17114;52.314;8.910;2023-04-07T13:26:19;18.85;;;10.60;;
30307;SDS011;17114;52.314;8.910;2023-04-07T13:28:47;16.92;;;10.48;;
30307;SDS011;17114;52.314;8.910;2023-04-07T13:31:14;17.60;;;10.75;;
30307;SDS011;17114;52.314;8.910;2023-04-07T13:33:42;17.10;;;10.20;;
30307;SDS011;17114;52.314;8.910;2023-04-07T13:36:09;19.05;;;11.05;;
30307;SDS011;17114;52.314;8.910;2023-04-07T13:38:36;18.83;;;10.30;;
30307;SDS011;17114;52.314;8.910;2023-04-07T13:41:03;18.05;;;11.25;;
30307;SDS011;17114;52.314;8.910;2023-04-07T13:43:29;18.05;;;10.57;;
30307;SDS011;17114;52.314;8.910;2023-04-07T13:45:57;16.50;;;10.50;;
30307;SDS011;17114;52.314;8.910;2023-04-07T13:48:24;18.15;;;11.07;;
30307;SDS011;17114;52.314;8.910;2023-04-07T13:50:51;19.83;;;11.15;;
30307;SDS011;17114;52.314;8.910;2023-04-07T13:53:17;17.48;;;10.60;;
30307;SDS011;17114;52.314;8.910;2023-04-07T13:55:45;17.55;;;11.65;;
30307;SDS011;17114;52.314;8.910;2023-04-07T13:58:12;18.73;;;11.43;;
30307;SDS011;17114;52.314;8.910;2023-04-07T14:00:39;18.63;;;11.07;;
30307;SDS011;17114;52.314;8.910;2023-04-07T14:03:06;16.75;;;10.73;;
30307;SDS011;17114;52.314;8.910;2023-04-07T14:05:34;17.67;;;11.18;;
30307;SDS011;17114;52.314;8.910;2023-04-07T14:08:01;20.45;;;11.13;;
30307;SDS011;17114;52.314;8.910;2023-04-07T14:10:28;15.80;;;10.00;;
30307;SDS011;17114;52.314;8.910;2023-04-07T14:12:55;16.10;;;10.48;;
30307;SDS011;17114;52.314;8.910;2023-04-07T14:15:22;20.85;;;10.70;;
30307;SDS011;17114;52.314;8.910;2023-04-07T14:17:52;17.02;;;10.55;;
30307;SDS011;17114;52.314;8.910;2023-04-07T14:20:19;17.92;;;10.75;;
30307;SDS011;17114;52.314;8.910;2023-04-07T14:22:46;21.02;;;11.43;;
30307;SDS011;17114;52.314;8.910;2023-04-07T14:25:13;18.08;;;10.90;;
30307;SDS011;17114;52.314;8.910;2023-04-07T14:27:40;16.85;;;10.65;;
30307;SDS011;17114;52.314;8.910;2023-04-07T14:30:07;20.80;;;11.10;;
30307;SDS011;17114;52.314;8.910;2023-04-07T14:32:35;16.15;;;10.32;;
30307;SDS011;17114;52.314;8.910;2023-04-07T14:35:02;19.98;;;10.80;;
30307;SDS011;17114;52.314;8.910;2023-04-07T14:37:29;18.42;;;11.25;;
30307;SDS011;17114;52.314;8.910;2023-04-07T14:39:55;20.38;;;11.52;;
30307;SDS011;17114;52.314;8.910;2023-04-07T14:42:26;20.50;;;11.75;;
30307;SDS011;17114;52.314;8.910;2023-04-07T14:44:55;20.23;;;11.35;;
30307;SDS011;17114;52.314;8.910;2023-04-07T14:47:22;16.08;;;10.57;;
30307;SDS011;17114;52.314;8.910;2023-04-07T14:49:49;16.30;;;10.50;;
30307;SDS011;17114;52.314;8.910;2023-04-07T14:52:18;18.38;;;10.55;;
30307;SDS011;17114;52.314;8.910;2023-04-07T14:54:47;18.42;;;11.00;;
30307;SDS011;17114;52.314;8.910;2023-04-07T14:57:14;16.95;;;10.75;;
30307;SDS011;17114;52.314;8.910;2023-04-07T14:59:42;16.92;;;10.60;;
30307;SDS011;17114;52.314;8.910;2023-04-07T15:02:09;16.55;;;10.55;;
30307;SDS011;17114;52.314;8.910;2023-04-07T15:04:39;16.60;;;10.07;;
30307;SDS011;17114;52.314;8.910;2023-04-07T15:07:06;17.42;;;10.52;;
30307;SDS011;17114;52.314;8.910;2023-04-07T15:09:33;15.77;;;10.57;;